Aktobe / Aktyubinsk Airport

Airport
ICAO code: 
UATT
IATA Code: 
AKX
Summary
ICAO Region: 
APAC
Territory: 
Location: 
Aktobe,
Serving: 
Aktobe
Elevation: 
738 ft
Coordinates: 
Aerial View: 
50° 14' 59.422" N, 57° 12' 8.558" E
Airport BS: 
Bird Strike
Airport CFIT: 
Altimeter Temperature Error Correction
Metar
Observation
UATT 050800Z 19006MPS 9999 BKN008 M02/M04 Q1019 NOSIG RMK QFE745/0993
Station
Aktjubinsk
Date/Time
2021-12-05 08:00:00
Wind direction
190°
Lowest cloud amount
broken clouds
Temperature
-2°C
Dew point
-4°C
Humidity
86%
QNH
1019 hPa
Weather condition
n/a

Description

International airport serving the city of Aktobe.

Climatology

Cold Semi-arid climate (Köppen climate classification BSk). - Hot, sometimes extremely hot summers and cold, sometimes very cold winters. Some snowfall during the winter. Areas featuring cold semi-arid climates are sometimes subject to major temperature swings during a 24 hour period.

Runways

Designator Length Width Surface Rops
13/31 3097 60 CON No/No
Airport map: 
Aerial View: 

SKYbrary Partners:

Safety knowledge contributed by: